Time;durP1;ratioP1;P1;durP2;ratioP2;P2;SDS_P1;SDS_P2;PMS_P1;PMS_P2;Temp;Humidity;BMP_temperature;BMP_pressure;BME280_temperature;BME280_humidity;BME280_pressure;Samples;Min_cycle;Max_cycle;Signal;HPM_P1;HPM_P2
2021/12/29 00:02:20;;;;;;;11.13;5.20;;;10.20;99.90;;;;;;5020719;28;20426;-90
2021/12/29 00:04:45;;;;;;;13.32;5.93;;;10.20;99.90;;;;;;5020115;28;20053;-91
2021/12/29 00:07:11;;;;;;;11.57;5.15;;;10.20;99.90;;;;;;5003605;28;20060;-90
2021/12/29 00:09:39;;;;;;;11.65;5.50;;;10.20;99.90;;;;;;5038871;28;20026;-91
2021/12/29 00:12:07;;;;;;;12.00;5.65;;;10.20;99.90;;;;;;5040218;28;20044;-91
2021/12/29 00:14:34;;;;;;;15.05;6.22;;;10.20;99.90;;;;;;5040099;28;20028;-91
2021/12/29 00:17:00;;;;;;;9.50;5.45;;;10.20;99.90;;;;;;5040362;28;20071;-90
2021/12/29 00:19:25;;;;;;;10.75;5.50;;;10.20;99.90;;;;;;5051453;28;20021;-94
2021/12/29 00:21:51;;;;;;;12.73;5.50;;;10.20;99.90;;;;;;5050601;28;20017;-92
2021/12/29 00:24:17;;;;;;;18.40;5.45;;;10.20;99.90;;;;;;5061177;28;20025;-91
2021/12/29 00:26:45;;;;;;;11.45;4.80;;;10.20;99.90;;;;;;5043891;28;20033;-92
2021/12/29 00:29:11;;;;;;;11.13;4.60;;;10.20;99.90;;;;;;5012075;28;20009;-90
2021/12/29 00:31:40;;;;;;;10.63;4.45;;;10.20;99.90;;;;;;5027642;28;20017;-91
2021/12/29 00:34:05;;;;;;;9.25;4.40;;;10.20;99.90;;;;;;5038510;28;20025;-90
2021/12/29 00:36:31;;;;;;;12.57;5.63;;;10.20;99.90;;;;;;5032096;28;20034;-90
2021/12/29 00:38:57;;;;;;;11.48;5.70;;;10.20;99.90;;;;;;5021373;28;20029;-91
2021/12/29 00:41:22;;;;;;;16.20;7.13;;;10.20;99.90;;;;;;5019605;28;20025;-90
2021/12/29 00:43:48;;;;;;;13.88;6.50;;;10.20;99.90;;;;;;5019328;28;20021;-90
2021/12/29 00:46:17;;;;;;;12.95;6.63;;;10.20;99.90;;;;;;5019307;28;20026;-91
2021/12/29 00:48:47;;;;;;;13.70;6.63;;;10.20;99.90;;;;;;5019580;28;20060;-91
2021/12/29 00:51:12;;;;;;;19.63;8.07;;;10.20;99.90;;;;;;5036743;28;20056;-92
2021/12/29 00:53:39;;;;;;;16.45;7.90;;;10.20;99.90;;;;;;5003285;28;20029;-91
2021/12/29 00:56:05;;;;;;;18.88;7.90;;;10.20;99.90;;;;;;5019201;28;20482;-92
2021/12/29 00:58:31;;;;;;;21.77;8.07;;;10.20;99.90;;;;;;5003513;28;20060;-91
2021/12/29 01:00:59;;;;;;;21.33;8.07;;;10.20;99.90;;;;;;5019252;28;20477;-92
2021/12/29 01:03:25;;;;;;;21.25;9.02;;;10.20;99.90;;;;;;5027139;28;20051;-92
2021/12/29 01:05:51;;;;;;;18.90;7.35;;;10.20;99.90;;;;;;5038554;28;20020;-92
2021/12/29 01:08:17;;;;;;;18.60;7.28;;;10.20;99.90;;;;;;5038544;28;20021;-92
2021/12/29 01:10:44;;;;;;;18.33;8.20;;;10.20;99.90;;;;;;5038553;28;20075;-92
2021/12/29 01:13:14;;;;;;;21.05;8.25;;;10.20;99.90;;;;;;5022475;28;20032;-92
2021/12/29 01:18:27;;;;;;;21.17;7.88;;;10.20;99.90;;;;;;5056234;28;20071;-91
2021/12/29 01:20:57;;;;;;;15.57;6.13;;;10.20;99.90;;;;;;5037634;28;20025;-92
2021/12/29 01:23:25;;;;;;;19.77;7.35;;;10.20;99.90;;;;;;5038633;28;20029;-91
2021/12/29 01:25:54;;;;;;;17.95;6.32;;;10.30;99.90;;;;;;5038895;28;20027;-92
2021/12/29 01:28:20;;;;;;;16.92;6.80;;;10.20;99.90;;;;;;5038486;28;20457;-92
2021/12/29 01:30:46;;;;;;;23.33;7.47;;;10.20;99.90;;;;;;5038423;28;20063;-92
2021/12/29 01:33:12;;;;;;;24.83;7.93;;;10.20;99.90;;;;;;5038764;28;20519;-92
2021/12/29 01:35:39;;;;;;;18.10;7.05;;;10.30;99.90;;;;;;5038666;28;20028;-91
2021/12/29 01:38:12;;;;;;;25.42;7.00;;;10.20;99.90;;;;;;5024350;28;20044;-91
2021/12/29 01:40:39;;;;;;;24.00;7.10;;;10.30;99.90;;;;;;5048122;28;20040;-93
2021/12/29 01:43:09;;;;;;;15.45;6.22;;;10.30;99.90;;;;;;5038891;28;20478;-91
2021/12/29 01:45:38;;;;;;;19.13;7.13;;;10.30;99.90;;;;;;5038561;28;20033;-92
2021/12/29 01:48:12;;;;;;;21.55;6.97;;;10.30;99.90;;;;;;5022491;28;20032;-93
2021/12/29 01:50:40;;;;;;;20.13;6.70;;;10.30;99.90;;;;;;5038419;28;20013;-93
2021/12/29 01:53:21;;;;;;;16.08;6.40;;;10.30;99.90;;;;;;5037929;28;20020;-92
2021/12/29 01:55:49;;;;;;;19.70;5.93;;;10.20;99.90;;;;;;5055908;28;20021;-92
2021/12/29 01:58:18;;;;;;;21.60;7.47;;;10.30;99.90;;;;;;5055527;28;20029;-92
2021/12/29 02:00:44;;;;;;;23.42;7.72;;;10.30;99.90;;;;;;5038302;28;20034;-92
2021/12/29 02:03:12;;;;;;;20.63;7.25;;;10.30;99.90;;;;;;5055405;28;20049;-92
2021/12/29 02:05:39;;;;;;;23.27;7.90;;;10.30;99.90;;;;;;5055908;28;20025;-91
2021/12/29 02:08:06;;;;;;;25.38;7.78;;;10.30;99.90;;;;;;5037740;28;20036;-91
2021/12/29 02:10:37;;;;;;;16.35;6.93;;;10.30;99.90;;;;;;5037952;28;20025;-92
2021/12/29 02:13:02;;;;;;;20.67;7.25;;;10.30;99.90;;;;;;5037891;28;20037;-92
2021/12/29 02:15:30;;;;;;;20.85;7.00;;;10.30;99.90;;;;;;5037690;28;20032;-92
2021/12/29 02:17:56;;;;;;;28.38;7.90;;;10.30;99.90;;;;;;5021305;28;20120;-91
2021/12/29 02:20:22;;;;;;;22.40;6.57;;;10.30;99.90;;;;;;5021361;28;20444;-91
2021/12/29 02:22:54;;;;;;;20.13;6.30;;;10.30;99.90;;;;;;5055149;28;20037;-92
2021/12/29 02:25:33;;;;;;;23.60;6.63;;;10.30;99.90;;;;;;5037608;28;20029;-91
2021/12/29 02:28:01;;;;;;;15.65;5.57;;;10.30;99.90;;;;;;5037566;28;20017;-91
2021/12/29 02:30:30;;;;;;;24.20;6.57;;;10.30;99.90;;;;;;5037694;28;20541;-91
2021/12/29 02:32:57;;;;;;;19.95;6.35;;;10.30;99.90;;;;;;5037142;28;20025;-91
2021/12/29 02:35:25;;;;;;;44.30;8.15;;;10.30;99.90;;;;;;5037287;28;20120;-91
2021/12/29 02:37:50;;;;;;;25.83;7.85;;;10.30;99.90;;;;;;5054767;28;20077;-91
2021/12/29 02:40:18;;;;;;;18.60;6.85;;;10.30;99.90;;;;;;5054939;28;20021;-91
2021/12/29 02:42:44;;;;;;;22.70;6.43;;;10.30;99.90;;;;;;5021018;28;20481;-90
2021/12/29 02:45:15;;;;;;;20.10;6.13;;;10.30;99.90;;;;;;5055116;28;20029;-90
2021/12/29 02:47:47;;;;;;;20.90;6.45;;;10.30;99.90;;;;;;5037470;28;20021;-90
2021/12/29 02:50:17;;;;;;;20.25;5.95;;;10.30;99.90;;;;;;5037155;28;20112;-90
2021/12/29 02:52:49;;;;;;;14.85;5.88;;;10.30;99.90;;;;;;5037438;28;20029;-91
2021/12/29 02:55:15;;;;;;;22.38;6.25;;;10.30;99.90;;;;;;5020379;28;20095;-91
2021/12/29 02:57:42;;;;;;;20.83;6.50;;;10.30;99.90;;;;;;5037943;28;20036;-91
2021/12/29 03:00:12;;;;;;;28.23;6.90;;;10.30;99.90;;;;;;5037731;28;20025;-91
2021/12/29 03:02:38;;;;;;;25.23;6.68;;;10.30;99.90;;;;;;5055078;28;20457;-90
2021/12/29 03:05:04;;;;;;;18.08;6.40;;;10.30;99.90;;;;;;5036676;28;20047;-91
2021/12/29 03:07:30;;;;;;;32.15;7.85;;;10.30;99.90;;;;;;5037009;28;20397;-91
2021/12/29 03:09:55;;;;;;;21.05;6.53;;;10.30;99.90;;;;;;5037253;28;20036;-91
2021/12/29 03:12:22;;;;;;;17.77;5.95;;;10.30;99.90;;;;;;5036711;28;20028;-90
2021/12/29 03:14:53;;;;;;;14.93;5.90;;;10.40;99.90;;;;;;5020581;28;20135;-90
2021/12/29 03:17:19;;;;;;;18.30;6.90;;;10.30;99.90;;;;;;5036998;28;20112;-91
2021/12/29 03:19:46;;;;;;;24.25;7.63;;;10.30;99.90;;;;;;5036952;28;20043;-92
2021/12/29 03:22:12;;;;;;;16.23;6.25;;;10.30;99.90;;;;;;5036617;28;20013;-89
2021/12/29 03:24:37;;;;;;;24.50;8.02;;;10.30;99.90;;;;;;5054351;28;20025;-90
2021/12/29 03:27:03;;;;;;;29.45;8.45;;;10.30;99.90;;;;;;5036718;28;20032;-90
2021/12/29 03:29:29;;;;;;;16.35;6.60;;;10.30;99.90;;;;;;5036779;28;20086;-90
2021/12/29 03:31:55;;;;;;;28.95;7.97;;;10.30;99.90;;;;;;5020271;28;20057;-89
2021/12/29 03:34:20;;;;;;;19.30;7.90;;;10.20;99.90;;;;;;5020076;28;20485;-90
2021/12/29 03:36:46;;;;;;;31.77;9.00;;;10.20;99.90;;;;;;5036692;28;20025;-89
2021/12/29 03:39:12;;;;;;;25.98;8.40;;;10.20;99.90;;;;;;5020023;28;20025;-90
2021/12/29 03:41:40;;;;;;;32.60;10.13;;;10.20;99.90;;;;;;5020377;28;20047;-91
2021/12/29 03:44:06;;;;;;;29.42;8.43;;;10.20;99.90;;;;;;5021748;28;20025;-90
2021/12/29 03:46:33;;;;;;;23.90;8.45;;;10.20;99.90;;;;;;5024405;28;20441;-90
2021/12/29 03:48:59;;;;;;;24.80;8.60;;;10.20;99.90;;;;;;5040687;28;20472;-90
2021/12/29 03:51:25;;;;;;;33.60;9.73;;;10.20;99.90;;;;;;5024260;28;20029;-90
2021/12/29 03:53:51;;;;;;;28.63;7.80;;;10.20;99.90;;;;;;5040835;28;20040;-90
2021/12/29 03:56:17;;;;;;;22.55;7.95;;;10.20;99.90;;;;;;5040716;28;20417;-89
2021/12/29 03:58:44;;;;;;;20.30;7.03;;;10.20;99.90;;;;;;5040794;28;20025;-89
2021/12/29 04:01:15;;;;;;;21.95;7.82;;;10.20;99.90;;;;;;5042859;28;20017;-90
2021/12/29 04:03:44;;;;;;;22.48;7.85;;;10.20;99.90;;;;;;5055791;28;20040;-90
2021/12/29 04:06:13;;;;;;;26.35;8.23;;;10.20;99.90;;;;;;5064888;28;20008;-94
2021/12/29 04:08:39;;;;;;;22.92;7.10;;;10.20;99.90;;;;;;5048070;28;20028;-91
2021/12/29 04:11:05;;;;;;;24.00;7.95;;;10.20;99.90;;;;;;5047636;28;20012;-94
2021/12/29 04:13:31;;;;;;;23.75;8.13;;;10.20;99.90;;;;;;5063836;28;20076;-91
2021/12/29 04:15:57;;;;;;;23.98;7.55;;;10.20;99.90;;;;;;5080081;28;20085;-91
2021/12/29 04:18:26;;;;;;;22.08;7.32;;;10.10;99.90;;;;;;5061432;28;20033;-91
2021/12/29 04:20:54;;;;;;;20.08;7.68;;;10.10;99.90;;;;;;5055979;28;20028;-90
2021/12/29 04:23:21;;;;;;;15.60;6.90;;;10.20;99.90;;;;;;5040231;28;20029;-91
2021/12/29 04:25:51;;;;;;;24.63;8.05;;;10.10;99.90;;;;;;5039882;28;20024;-90
2021/12/29 04:28:20;;;;;;;21.63;7.78;;;10.20;99.90;;;;;;5057257;28;20021;-90
2021/12/29 04:30:47;;;;;;;22.13;7.38;;;10.10;99.90;;;;;;5039580;28;20032;-91
2021/12/29 04:33:13;;;;;;;24.95;7.13;;;10.10;99.90;;;;;;5039345;28;20116;-90
2021/12/29 04:35:42;;;;;;;18.38;7.43;;;10.10;99.90;;;;;;5006830;28;20035;-91
2021/12/29 04:38:08;;;;;;;15.38;6.60;;;10.10;99.90;;;;;;5039181;28;20029;-90
2021/12/29 04:40:34;;;;;;;19.73;7.70;;;10.10;99.90;;;;;;5023112;28;20033;-90
2021/12/29 04:43:00;;;;;;;18.08;7.13;;;10.10;99.90;;;;;;5039417;28;20033;-90
2021/12/29 04:45:29;;;;;;;20.80;7.05;;;10.10;99.90;;;;;;5039440;28;20027;-91
2021/12/29 04:47:58;;;;;;;16.98;6.43;;;10.10;99.90;;;;;;5039142;28;20029;-90
2021/12/29 04:50:26;;;;;;;18.50;7.35;;;10.10;99.90;;;;;;5023026;28;20029;-91
2021/12/29 04:52:55;;;;;;;15.52;6.43;;;10.10;99.90;;;;;;5023161;28;20032;-90
2021/12/29 04:55:21;;;;;;;17.17;6.20;;;10.10;99.90;;;;;;5038744;28;20438;-91
2021/12/29 04:57:47;;;;;;;27.75;7.63;;;10.10;99.90;;;;;;5038939;28;20087;-91
2021/12/29 05:00:15;;;;;;;14.85;6.70;;;10.10;99.90;;;;;;5038858;28;20420;-91
2021/12/29 05:02:42;;;;;;;15.77;6.93;;;10.10;99.90;;;;;;5022830;28;20025;-91
2021/12/29 05:05:20;;;;;;;22.90;7.90;;;10.10;99.90;;;;;;5022834;28;20056;-91
2021/12/29 05:10:30;;;;;;;19.42;8.25;;;10.10;99.90;;;;;;5056421;28;20375;-91
2021/12/29 05:12:56;;;;;;;21.33;7.82;;;10.10;99.90;;;;;;5022252;28;20461;-90
2021/12/29 05:15:22;;;;;;;20.17;8.00;;;10.10;99.90;;;;;;5055034;28;20033;-90
2021/12/29 05:17:47;;;;;;;21.33;7.97;;;10.10;99.90;;;;;;5022173;28;20480;-90
2021/12/29 05:20:13;;;;;;;19.73;8.00;;;10.10;99.90;;;;;;5022277;28;20170;-90
2021/12/29 05:22:39;;;;;;;15.63;8.02;;;10.10;99.90;;;;;;5038524;28;20021;-91
2021/12/29 05:25:05;;;;;;;15.60;7.60;;;10.10;99.90;;;;;;5038796;28;20033;-90
2021/12/29 05:27:31;;;;;;;19.15;8.48;;;10.10;99.90;;;;;;5038427;28;20029;-90
2021/12/29 05:29:56;;;;;;;21.02;8.40;;;10.10;99.90;;;;;;5038376;28;20382;-90
2021/12/29 05:32:22;;;;;;;23.02;8.85;;;10.10;99.90;;;;;;5038261;28;20033;-90
2021/12/29 05:34:48;;;;;;;21.83;9.00;;;10.10;99.90;;;;;;5021953;28;20029;-90
2021/12/29 05:37:16;;;;;;;15.10;7.97;;;10.10;99.90;;;;;;5038234;28;20029;-93
2021/12/29 05:39:41;;;;;;;21.95;10.02;;;10.10;99.90;;;;;;5022378;28;20085;-90
2021/12/29 05:42:10;;;;;;;21.02;10.65;;;10.10;99.90;;;;;;5038677;28;20028;-90
2021/12/29 05:44:38;;;;;;;22.75;10.65;;;10.10;99.90;;;;;;5038118;28;20538;-90
2021/12/29 05:47:04;;;;;;;21.38;11.27;;;10.10;99.90;;;;;;5055895;28;20108;-90
2021/12/29 05:49:30;;;;;;;23.55;12.00;;;10.10;99.90;;;;;;5037478;28;20452;-91
2021/12/29 05:51:55;;;;;;;29.05;12.80;;;10.10;99.90;;;;;;5021689;28;20472;-89
2021/12/29 05:54:21;;;;;;;18.60;11.23;;;10.10;99.90;;;;;;5037270;28;20120;-89
2021/12/29 05:56:47;;;;;;;17.40;9.98;;;10.10;99.90;;;;;;5037563;28;20040;-89
2021/12/29 05:59:13;;;;;;;22.95;11.38;;;10.10;99.90;;;;;;5021234;28;20032;-89
2021/12/29 06:01:39;;;;;;;24.20;11.50;;;10.10;99.90;;;;;;5037771;28;20477;-90
2021/12/29 06:04:05;;;;;;;20.95;10.48;;;10.10;99.90;;;;;;5037439;28;20397;-89
2021/12/29 06:06:31;;;;;;;21.23;10.52;;;10.10;99.90;;;;;;5037197;28;20036;-90
2021/12/29 06:08:57;;;;;;;19.45;9.85;;;10.10;99.90;;;;;;5037527;28;20028;-91
2021/12/29 06:11:25;;;;;;;20.20;9.80;;;10.10;99.90;;;;;;5037362;28;20125;-89
2021/12/29 06:13:50;;;;;;;19.77;10.48;;;10.10;99.90;;;;;;5054850;28;20021;-90
2021/12/29 06:16:16;;;;;;;17.70;9.38;;;10.10;99.90;;;;;;5015193;28;20040;-89
2021/12/29 06:18:42;;;;;;;21.08;10.30;;;10.10;99.90;;;;;;5014927;28;20037;-89
2021/12/29 06:21:07;;;;;;;19.83;9.45;;;10.10;99.90;;;;;;5051718;28;20071;-90
2021/12/29 06:23:33;;;;;;;21.60;9.57;;;10.10;99.90;;;;;;5036866;28;20068;-90
2021/12/29 06:25:59;;;;;;;19.17;10.15;;;10.10;99.90;;;;;;5037261;28;20048;-89
2021/12/29 06:28:27;;;;;;;19.65;9.50;;;10.10;99.90;;;;;;5036919;28;20423;-90
2021/12/29 06:30:53;;;;;;;17.90;9.25;;;10.10;99.90;;;;;;5017473;28;20067;-90
2021/12/29 06:33:21;;;;;;;16.08;8.57;;;10.10;99.90;;;;;;5053433;28;20056;-90
2021/12/29 06:35:46;;;;;;;20.48;9.43;;;10.20;99.90;;;;;;5036434;28;20029;-91
2021/12/29 06:38:12;;;;;;;20.38;10.50;;;10.10;99.90;;;;;;5037844;28;20029;-90
2021/12/29 06:40:38;;;;;;;19.08;9.60;;;10.10;99.90;;;;;;5037333;28;20028;-90
2021/12/29 06:43:03;;;;;;;20.90;10.05;;;10.10;99.90;;;;;;5036355;28;20013;-90
2021/12/29 06:45:32;;;;;;;29.98;11.48;;;10.10;99.90;;;;;;5036936;28;20119;-90
2021/12/29 06:48:01;;;;;;;18.42;10.00;;;10.10;99.90;;;;;;5036867;28;20036;-91
2021/12/29 06:50:27;;;;;;;25.63;11.10;;;10.10;99.90;;;;;;5036951;28;20466;-90
2021/12/29 06:52:55;;;;;;;24.33;11.32;;;10.10;99.90;;;;;;5036788;28;20029;-91
2021/12/29 06:55:21;;;;;;;24.92;11.13;;;10.10;99.90;;;;;;5036872;28;20033;-91
2021/12/29 06:57:47;;;;;;;28.10;11.40;;;10.10;99.90;;;;;;5037191;28;20470;-92
2021/12/29 07:00:13;;;;;;;36.05;12.55;;;10.10;99.90;;;;;;5037220;28;20074;-91
2021/12/29 07:02:42;;;;;;;25.35;11.20;;;10.10;99.90;;;;;;5035530;28;20074;-91
2021/12/29 07:05:08;;;;;;;24.95;11.07;;;10.10;99.90;;;;;;5036634;28;20060;-91
2021/12/29 07:07:34;;;;;;;28.85;11.48;;;10.10;99.90;;;;;;5020371;28;20040;-91
2021/12/29 07:10:00;;;;;;;24.15;11.65;;;10.10;99.90;;;;;;5020455;28;20037;-90
2021/12/29 07:12:25;;;;;;;24.95;11.40;;;10.10;99.90;;;;;;5036554;28;20029;-91
2021/12/29 07:14:51;;;;;;;25.95;11.85;;;10.10;99.90;;;;;;5036521;28;20453;-90
2021/12/29 07:17:17;;;;;;;26.60;11.60;;;10.10;99.90;;;;;;5020591;28;20119;-90
2021/12/29 07:19:44;;;;;;;26.38;10.50;;;10.00;99.90;;;;;;5036287;28;20163;-90
2021/12/29 07:22:10;;;;;;;21.88;11.35;;;10.10;99.90;;;;;;5036587;28;20107;-90
2021/12/29 07:24:36;;;;;;;23.65;10.98;;;10.00;99.90;;;;;;5036348;28;20052;-90
2021/12/29 07:27:03;;;;;;;24.55;11.60;;;10.00;99.90;;;;;;5036492;28;20032;-90
2021/12/29 07:29:29;;;;;;;26.50;12.02;;;10.00;99.90;;;;;;5054030;28;20021;-89
2021/12/29 07:31:57;;;;;;;24.00;11.70;;;10.00;99.90;;;;;;5036465;28;20021;-90
2021/12/29 07:34:24;;;;;;;28.27;12.35;;;10.00;99.90;;;;;;5036554;28;20483;-91
2021/12/29 07:36:50;;;;;;;24.35;12.23;;;10.00;99.90;;;;;;5036438;28;20131;-90
2021/12/29 07:39:16;;;;;;;29.80;12.93;;;10.00;99.90;;;;;;5020482;28;20029;-90
2021/12/29 07:41:42;;;;;;;20.95;11.85;;;10.00;99.90;;;;;;5036324;28;20068;-90
2021/12/29 07:44:11;;;;;;;24.30;11.85;;;10.00;99.90;;;;;;5037241;28;20029;-89
2021/12/29 07:46:37;;;;;;;22.65;11.57;;;10.00;99.90;;;;;;5035950;28;20025;-90
2021/12/29 07:49:04;;;;;;;25.50;12.52;;;10.00;99.90;;;;;;5044411;28;20036;-92
2021/12/29 07:51:30;;;;;;;28.20;13.77;;;9.90;99.90;;;;;;5060582;28;20006;-94
2021/12/29 07:53:59;;;;;;;28.73;12.30;;;9.90;99.90;;;;;;5060133;28;20047;-91
2021/12/29 07:56:25;;;;;;;23.65;11.48;;;10.00;99.90;;;;;;5060306;28;20041;-93
2021/12/29 07:58:54;;;;;;;24.00;11.30;;;10.00;99.90;;;;;;5044059;28;20044;-87
2021/12/29 08:01:19;;;;;;;20.13;10.93;;;10.00;99.90;;;;;;5056865;28;20023;-93
2021/12/29 08:03:45;;;;;;;25.83;11.90;;;9.90;99.90;;;;;;5051760;28;20445;-90
2021/12/29 08:06:11;;;;;;;25.80;12.68;;;9.90;99.90;;;;;;5022580;28;20028;-89
2021/12/29 08:08:37;;;;;;;25.40;11.98;;;9.90;99.90;;;;;;5019711;28;20021;-89
2021/12/29 08:11:03;;;;;;;32.67;13.05;;;9.90;99.90;;;;;;5036357;28;20017;-88
2021/12/29 08:13:28;;;;;;;24.75;11.68;;;9.90;99.90;;;;;;5019506;28;20025;-90
2021/12/29 08:15:54;;;;;;;29.88;13.43;;;9.90;99.90;;;;;;5037325;28;20113;-89
2021/12/29 08:18:20;;;;;;;23.23;12.70;;;9.90;99.90;;;;;;5039688;28;20449;-88
2021/12/29 08:20:45;;;;;;;25.48;12.75;;;9.90;99.90;;;;;;5027960;28;20029;-88
2021/12/29 08:23:11;;;;;;;25.52;13.65;;;9.90;99.90;;;;;;5035709;28;20075;-89
2021/12/29 08:25:38;;;;;;;32.17;14.85;;;9.90;99.90;;;;;;5019648;28;20040;-87
2021/12/29 08:28:04;;;;;;;29.10;13.68;;;9.90;99.90;;;;;;5019144;28;20025;-89
2021/12/29 08:30:30;;;;;;;26.60;14.13;;;9.90;99.90;;;;;;5021204;28;20017;-89
2021/12/29 08:32:56;;;;;;;29.08;13.40;;;9.90;99.90;;;;;;5039230;28;20025;-89
2021/12/29 08:35:23;;;;;;;30.02;15.07;;;9.90;99.90;;;;;;5039820;28;20025;-89
2021/12/29 08:37:51;;;;;;;26.75;14.25;;;9.90;99.90;;;;;;5058305;28;20021;-89
2021/12/29 08:40:17;;;;;;;33.38;15.35;;;9.90;99.90;;;;;;5006465;28;20033;-88
2021/12/29 08:42:43;;;;;;;27.15;14.18;;;9.90;99.90;;;;;;5022530;28;20035;-88
2021/12/29 08:45:11;;;;;;;33.83;15.32;;;9.90;99.90;;;;;;5038757;28;20025;-88
2021/12/29 08:47:37;;;;;;;30.35;16.40;;;9.90;99.90;;;;;;5039053;28;20107;-89
2021/12/29 08:50:06;;;;;;;31.77;16.20;;;9.90;99.90;;;;;;5038799;28;20424;-88
2021/12/29 08:52:33;;;;;;;37.80;16.52;;;9.90;99.90;;;;;;5022963;28;20088;-89
2021/12/29 08:54:59;;;;;;;37.15;17.65;;;9.90;99.90;;;;;;5038654;28;20024;-89
2021/12/29 08:57:24;;;;;;;31.25;16.05;;;9.90;99.90;;;;;;5022502;28;20365;-90
2021/12/29 08:59:50;;;;;;;32.53;15.65;;;9.90;99.90;;;;;;5038671;28;20017;-90
2021/12/29 09:02:16;;;;;;;34.83;17.15;;;9.90;99.90;;;;;;5056637;28;20366;-89
2021/12/29 09:04:41;;;;;;;36.65;16.80;;;9.90;99.90;;;;;;5057351;28;20045;-89
2021/12/29 09:07:07;;;;;;;30.17;15.55;;;9.90;99.90;;;;;;5038697;28;20040;-89
2021/12/29 09:09:33;;;;;;;32.70;17.08;;;9.90;99.90;;;;;;5022099;28;20036;-89
2021/12/29 09:11:59;;;;;;;34.30;16.02;;;9.90;99.90;;;;;;5005814;28;20096;-90
2021/12/29 09:14:25;;;;;;;32.92;16.40;;;9.90;99.90;;;;;;5019312;28;20101;-92
2021/12/29 09:16:50;;;;;;;27.55;14.80;;;9.90;99.90;;;;;;5020248;28;20117;-88
2021/12/29 09:19:16;;;;;;;42.03;16.38;;;9.90;99.90;;;;;;5054709;28;20033;-90
2021/12/29 09:21:47;;;;;;;44.95;17.60;;;9.90;99.90;;;;;;5015834;28;20028;-90
2021/12/29 09:24:13;;;;;;;32.50;16.70;;;9.90;99.90;;;;;;5056083;28;20029;-90
2021/12/29 09:26:39;;;;;;;36.25;16.88;;;9.90;99.90;;;;;;5005019;28;20044;-90
2021/12/29 09:29:05;;;;;;;35.72;16.90;;;9.90;99.90;;;;;;5021591;28;20029;-89
2021/12/29 09:31:31;;;;;;;31.85;15.70;;;9.90;99.90;;;;;;5038220;28;20035;-89
2021/12/29 09:33:57;;;;;;;40.47;17.15;;;9.90;99.90;;;;;;5038086;28;20024;-88
2021/12/29 09:36:24;;;;;;;33.38;17.55;;;9.90;99.90;;;;;;5038555;28;20024;-89
2021/12/29 09:38:50;;;;;;;38.63;16.65;;;9.90;99.90;;;;;;5034480;28;20060;-93
2021/12/29 09:41:17;;;;;;;40.00;17.17;;;9.90;99.90;;;;;;5020676;28;20056;-89
2021/12/29 09:43:45;;;;;;;31.30;15.75;;;9.90;99.90;;;;;;5037779;28;20021;-88
2021/12/29 09:46:11;;;;;;;33.65;16.50;;;9.90;99.90;;;;;;5035171;28;20079;-88
2021/12/29 09:48:37;;;;;;;32.80;16.98;;;9.90;99.90;;;;;;5020367;28;20025;-88
2021/12/29 09:51:05;;;;;;;36.67;17.33;;;9.90;99.90;;;;;;5036620;28;20024;-89
2021/12/29 09:53:31;;;;;;;31.33;16.27;;;9.90;99.90;;;;;;5037137;28;20052;-88
2021/12/29 09:55:57;;;;;;;28.98;15.93;;;9.90;99.90;;;;;;5020560;28;20040;-88
2021/12/29 09:58:23;;;;;;;34.35;15.88;;;9.90;99.90;;;;;;5037015;28;20025;-89
2021/12/29 10:00:51;;;;;;;28.42;15.25;;;9.90;99.90;;;;;;5020276;28;20017;-88
2021/12/29 10:03:19;;;;;;;34.22;16.00;;;9.90;99.90;;;;;;5052349;28;20106;-89
2021/12/29 10:05:47;;;;;;;34.45;16.55;;;9.90;99.90;;;;;;5025591;28;20025;-88
2021/12/29 10:08:29;;;;;;;33.17;16.83;;;9.90;99.90;;;;;;5018846;28;20358;-89
2021/12/29 10:11:01;;;;;;;38.40;17.25;;;9.90;99.90;;;;;;5035590;28;20112;-86
2021/12/29 10:13:32;;;;;;;35.05;16.80;;;9.90;99.90;;;;;;5039467;28;20060;-86
2021/12/29 10:16:08;;;;;;;29.02;15.65;;;10.00;99.90;;;;;;5027184;28;20108;-87
2021/12/29 10:18:37;;;;;;;35.83;17.60;;;9.90;99.90;;;;;;5020735;28;20096;-88
2021/12/29 10:21:17;;;;;;;32.22;16.20;;;9.90;99.90;;;;;;5024752;28;20052;-88
2021/12/29 10:23:48;;;;;;;27.67;15.30;;;9.90;99.90;;;;;;5021766;28;20120;-88
2021/12/29 10:26:16;;;;;;;39.60;16.95;;;10.00;99.90;;;;;;5012223;28;20426;-88
2021/12/29 10:28:48;;;;;;;32.95;16.75;;;9.90;99.90;;;;;;5014817;28;20459;-87
2021/12/29 10:31:25;;;;;;;32.25;16.58;;;10.00;99.90;;;;;;5013709;28;20022;-87
2021/12/29 10:33:56;;;;;;;29.77;15.40;;;10.00;99.90;;;;;;4997514;28;20022;-88
2021/12/29 10:36:29;;;;;;;;;;;10.00;99.90;;;;;;5013912;28;20042;-88
2021/12/29 10:39:01;;;;;;;31.95;15.70;;;10.00;99.90;;;;;;4996834;28;19916;-88
2021/12/29 10:41:28;;;;;;;26.13;15.85;;;9.90;99.90;;;;;;4997027;28;20022;-89
2021/12/29 10:44:00;;;;;;;26.23;14.35;;;10.00;99.90;;;;;;4980709;28;20026;-88
2021/12/29 10:46:27;;;;;;;27.50;14.65;;;10.00;99.90;;;;;;5014517;28;20033;-87
2021/12/29 10:48:55;;;;;;;24.77;13.65;;;9.90;99.90;;;;;;4996754;28;20390;-87
2021/12/29 10:51:28;;;;;;;24.98;14.60;;;9.90;99.90;;;;;;5012612;28;20022;-88
2021/12/29 10:54:04;;;;;;;24.65;13.18;;;9.90;99.90;;;;;;5007108;28;20028;-88
2021/12/29 10:56:31;;;;;;;24.33;14.18;;;9.90;99.90;;;;;;5039059;28;20037;-88
2021/12/29 10:58:57;;;;;;;21.73;13.52;;;9.90;99.90;;;;;;5021200;28;20049;-88
2021/12/29 11:01:23;;;;;;;23.73;13.93;;;9.90;99.90;;;;;;5024287;28;20079;-89
2021/12/29 11:03:55;;;;;;;24.60;14.23;;;9.90;99.90;;;;;;5045687;28;20045;-89
2021/12/29 11:06:24;;;;;;;24.77;13.65;;;9.90;99.90;;;;;;5027991;28;20059;-88
2021/12/29 11:08:53;;;;;;;26.75;13.45;;;9.90;99.90;;;;;;5035528;28;20017;-88
2021/12/29 11:11:35;;;;;;;22.30;13.75;;;9.90;99.90;;;;;;5035618;28;20075;-89
2021/12/29 11:14:17;;;;;;;26.75;14.07;;;9.90;99.90;;;;;;5055026;28;20024;-85
2021/12/29 11:16:46;;;;;;;19.23;13.35;;;9.90;99.90;;;;;;5035878;28;20373;-85
2021/12/29 11:19:12;;;;;;;19.52;13.50;;;10.00;99.90;;;;;;5053437;28;20060;-85
2021/12/29 11:21:41;;;;;;;21.33;14.27;;;10.00;99.90;;;;;;5035980;28;20025;-85
2021/12/29 11:24:23;;;;;;;21.35;13.45;;;10.00;99.90;;;;;;5035126;28;20071;-85
2021/12/29 11:26:50;;;;;;;26.42;14.02;;;9.90;99.90;;;;;;5035739;28;20111;-85
2021/12/29 11:29:22;;;;;;;22.58;14.38;;;10.00;99.90;;;;;;5036351;28;20064;-86
2021/12/29 11:32:00;;;;;;;23.73;13.90;;;10.00;99.90;;;;;;5043038;28;20461;-86
2021/12/29 11:34:28;;;;;;;25.10;15.32;;;10.00;99.90;;;;;;5070801;28;20021;-85
2021/12/29 11:37:10;;;;;;;23.77;14.98;;;10.00;99.90;;;;;;5071733;28;20036;-88
2021/12/29 11:39:42;;;;;;;26.33;15.65;;;10.00;99.90;;;;;;5051435;28;20377;-86
2021/12/29 11:42:09;;;;;;;21.48;14.50;;;10.00;99.90;;;;;;5048612;28;20049;-85
2021/12/29 11:44:35;;;;;;;20.67;14.23;;;10.00;99.90;;;;;;5049565;28;20029;-85
2021/12/29 11:47:02;;;;;;;21.33;14.27;;;10.00;99.90;;;;;;5044903;28;20029;-86
2021/12/29 11:49:29;;;;;;;19.42;13.95;;;10.00;99.90;;;;;;5023575;28;20025;-85
2021/12/29 11:52:05;;;;;;;23.98;13.52;;;10.00;99.90;;;;;;5035739;28;20117;-88
2021/12/29 11:54:50;;;;;;;21.65;14.85;;;10.00;99.90;;;;;;5054247;28;20025;-88
2021/12/29 11:57:22;;;;;;;23.13;14.45;;;10.00;99.90;;;;;;5024683;28;20041;-86
2021/12/29 11:59:48;;;;;;;22.85;13.43;;;10.00;99.90;;;;;;5035924;28;20055;-87
2021/12/29 12:02:28;;;;;;;21.83;13.07;;;10.00;99.90;;;;;;5003074;28;20036;-85
2021/12/29 12:05:07;;;;;;;19.58;14.57;;;10.00;99.90;;;;;;5020603;28;20049;-90
2021/12/29 12:07:33;;;;;;;19.02;12.85;;;10.00;99.90;;;;;;5038958;28;20469;-85
2021/12/29 12:10:02;;;;;;;20.52;12.95;;;10.00;99.90;;;;;;5039019;28;20028;-86
2021/12/29 12:12:40;;;;;;;21.05;13.63;;;9.90;99.90;;;;;;5006983;28;20025;-87
2021/12/29 12:15:11;;;;;;;24.65;14.18;;;10.00;99.90;;;;;;5039396;28;20048;-85
2021/12/29 12:17:38;;;;;;;21.35;13.75;;;10.00;99.90;;;;;;5023039;28;20127;-84
2021/12/29 12:20:16;;;;;;;25.80;13.82;;;10.00;99.90;;;;;;5039950;28;20381;-84
2021/12/29 12:22:52;;;;;;;23.00;13.07;;;10.00;99.90;;;;;;5042496;28;20036;-84
2021/12/29 12:25:31;;;;;;;19.30;12.23;;;10.00;99.90;;;;;;5041653;28;20020;-84
2021/12/29 12:28:01;;;;;;;19.67;13.43;;;10.00;99.90;;;;;;5039477;28;20025;-91
2021/12/29 12:30:42;;;;;;;17.27;11.77;;;10.00;99.90;;;;;;5022535;28;20179;-86
2021/12/29 12:33:21;;;;;;;18.60;12.30;;;10.00;99.90;;;;;;5055751;28;20037;-85
2021/12/29 12:35:49;;;;;;;18.20;12.00;;;10.00;99.90;;;;;;5030737;28;20032;-84
2021/12/29 12:38:34;;;;;;;22.02;11.93;;;10.10;99.90;;;;;;5031604;28;20025;-85
2021/12/29 12:41:18;;;;;;;18.38;11.50;;;10.00;99.90;;;;;;5037434;28;20017;-85
2021/12/29 12:43:57;;;;;;;19.65;11.77;;;10.10;99.90;;;;;;5054658;28;20021;-84